Time;durP1;ratioP1;P1;durP2;ratioP2;P2;SDS_P1;SDS_P2;PMS_P1;PMS_P2;Temp;Humidity;BMP_temperature;BMP_pressure;BME280_temperature;BME280_humidity;BME280_pressure;Samples;Min_cycle;Max_cycle;Signal;HPM_P1;HPM_P2
2023/06/26 00:01:12;;;;;;;9.25;8.38;;;;;;;-146.58;100.00;69501.63;5011764;28;20030;-66
2023/06/26 00:03:37;;;;;;;11.38;8.48;;;;;;;-146.58;100.00;69501.63;5008878;28;20053;-67
2023/06/26 00:06:03;;;;;;;9.13;8.23;;;;;;;-146.58;100.00;69501.63;5011576;28;20032;-67
2023/06/26 00:08:28;;;;;;;10.98;9.45;;;;;;;-146.58;100.00;69501.63;5010190;28;20061;-66
2023/06/26 00:10:54;;;;;;;10.50;8.77;;;;;;;-146.58;100.00;69501.63;5011303;28;20469;-66
2023/06/26 00:13:19;;;;;;;9.75;8.60;;;;;;;-146.58;100.00;69501.63;5010242;28;20049;-66
2023/06/26 00:15:45;;;;;;;10.63;8.77;;;;;;;-146.58;100.00;69501.63;5011850;28;20385;-66
2023/06/26 00:18:10;;;;;;;16.73;10.27;;;;;;;-146.58;100.00;69501.63;5009214;28;20026;-66
2023/06/26 00:20:36;;;;;;;11.15;9.98;;;;;;;-146.58;100.00;69501.63;5011525;28;20013;-66
2023/06/26 00:23:03;;;;;;;10.38;9.38;;;;;;;-146.58;100.00;69501.63;5008736;28;20484;-68
2023/06/26 00:25:29;;;;;;;10.90;9.85;;;;;;;-146.58;100.00;69501.63;5011242;28;20036;-68
2023/06/26 00:27:54;;;;;;;13.38;10.10;;;;;;;-146.58;100.00;69501.63;5009812;28;20038;-68
2023/06/26 00:30:20;;;;;;;10.77;9.68;;;;;;;-146.58;100.00;69501.63;5011319;28;20076;-68
2023/06/26 00:32:45;;;;;;;10.50;9.10;;;;;;;-146.58;100.00;69501.63;5011270;28;20042;-68
2023/06/26 00:35:10;;;;;;;11.40;10.20;;;;;;;-146.58;100.00;69501.63;5010032;28;20096;-68
2023/06/26 00:37:36;;;;;;;10.02;9.02;;;;;;;-146.58;100.00;69501.63;5011202;28;20084;-68
2023/06/26 00:40:01;;;;;;;11.85;9.77;;;;;;;-146.58;100.00;69501.63;5009316;28;20041;-68
2023/06/26 00:42:27;;;;;;;10.95;8.73;;;;;;;-146.58;100.00;69501.63;5011312;28;20032;-70
2023/06/26 00:44:52;;;;;;;9.65;8.75;;;;;;;-146.58;100.00;69501.63;5009517;28;20045;-74
2023/06/26 00:47:18;;;;;;;10.75;8.73;;;;;;;-146.58;100.00;69501.63;5011128;28;20612;-68
2023/06/26 00:49:44;;;;;;;13.50;10.30;;;;;;;-146.58;100.00;69501.63;5009389;28;20050;-69
2023/06/26 00:52:09;;;;;;;9.77;8.52;;;;;;;-146.58;100.00;69501.63;5010861;28;20030;-69
2023/06/26 00:54:34;;;;;;;13.60;10.18;;;;;;;-146.58;100.00;69501.63;5007923;28;20083;-68
2023/06/26 00:57:00;;;;;;;13.80;10.18;;;;;;;-146.58;100.00;69501.63;5010892;28;20381;-67
2023/06/26 00:59:25;;;;;;;15.23;9.13;;;;;;;-146.58;100.00;69501.63;5009387;28;20401;-67
2023/06/26 01:01:51;;;;;;;11.30;10.00;;;;;;;-146.58;100.00;69501.63;5010929;28;20022;-67
2023/06/26 01:04:19;;;;;;;12.13;9.32;;;;;;;-146.58;100.00;69501.63;5009160;28;20116;-67
2023/06/26 01:06:49;;;;;;;11.35;9.68;;;;;;;-146.58;100.00;69501.63;5011204;28;20022;-67
2023/06/26 01:09:23;;;;;;;11.55;10.45;;;;;;;-146.58;100.00;69501.63;5009513;28;20065;-67
2023/06/26 01:11:48;;;;;;;18.92;10.80;;;;;;;-146.58;100.00;69501.63;5010678;28;20108;-67
2023/06/26 01:14:14;;;;;;;9.52;8.63;;;;;;;-146.58;100.00;69501.63;5009570;28;20489;-67
2023/06/26 01:16:41;;;;;;;13.40;9.98;;;;;;;-146.58;100.00;69501.63;5010948;28;20048;-67
2023/06/26 01:19:13;;;;;;;11.73;10.52;;;;;;;-146.58;100.00;69501.63;5008921;28;20121;-67
2023/06/26 01:21:43;;;;;;;13.73;12.23;;;;;;;-146.58;100.00;69501.63;5010835;28;20065;-67
2023/06/26 01:24:21;;;;;;;10.10;9.20;;;;;;;-146.58;100.00;69501.63;5008967;28;20121;-67
2023/06/26 01:26:49;;;;;;;11.50;10.38;;;;;;;-146.58;100.00;69501.63;5010726;28;20022;-67
2023/06/26 01:29:17;;;;;;;11.80;9.50;;;;;;;-146.58;100.00;69501.63;5009089;28;20061;-67
2023/06/26 01:31:46;;;;;;;11.85;10.45;;;;;;;-146.58;100.00;69501.63;5014403;28;20096;-68
2023/06/26 01:34:11;;;;;;;;;;;;;;;-146.58;100.00;69501.63;5013917;28;20069;-67
2023/06/26 01:36:37;;;;;;;13.07;8.50;;;;;;;-146.58;100.00;69501.63;5014508;28;20288;-67
2023/06/26 01:39:02;;;;;;;12.40;10.63;;;;;;;-146.58;100.00;69501.63;5012550;28;20042;-67
2023/06/26 01:41:28;;;;;;;13.82;10.40;;;;;;;-146.58;100.00;69501.63;5014542;28;20028;-67
2023/06/26 01:44:08;;;;;;;10.63;9.57;;;;;;;-146.58;100.00;69501.63;5012875;28;20049;-67
2023/06/26 01:46:46;;;;;;;9.55;8.55;;;;;;;-146.58;100.00;69501.63;5014369;28;20029;-66
2023/06/26 01:49:11;;;;;;;;;;;;;;;-146.58;100.00;69501.63;5013083;28;20152;-66
2023/06/26 01:51:42;;;;;;;11.67;9.90;;;;;;;-146.58;100.00;69501.63;5014591;28;19909;-66
2023/06/26 01:54:11;;;;;;;9.90;8.52;;;;;;;-146.58;100.00;69501.63;5012191;28;20034;-66
2023/06/26 01:56:38;;;;;;;12.57;11.27;;;;;;;-146.58;100.00;69501.63;5014294;28;20032;-68
2023/06/26 01:59:05;;;;;;;11.60;8.88;;;;;;;-146.58;100.00;69501.63;5012695;28;20033;-68
2023/06/26 02:01:33;;;;;;;14.43;10.82;;;;;;;-146.58;100.00;69501.63;5013769;28;20018;-67
2023/06/26 02:03:58;;;;;;;10.30;9.23;;;;;;;-146.58;100.00;69501.63;5012282;28;20132;-67
2023/06/26 02:06:23;;;;;;;14.70;9.73;;;;;;;-146.58;100.00;69501.63;5013968;28;20846;-67
2023/06/26 02:08:49;;;;;;;11.38;9.98;;;;;;;-146.58;100.00;69501.63;5011733;28;20528;-67
2023/06/26 02:11:14;;;;;;;11.23;10.13;;;;;;;-146.58;100.00;69501.63;5014172;28;20576;-66
2023/06/26 02:13:39;;;;;;;10.85;9.70;;;;;;;-146.58;100.00;69501.63;5012566;28;20034;-66
2023/06/26 02:16:05;;;;;;;10.13;9.23;;;;;;;-146.58;100.00;69501.63;5012207;28;20485;-63
2023/06/26 02:18:30;;;;;;;11.88;10.02;;;;;;;-146.58;100.00;69501.63;5012676;28;20038;-64
2023/06/26 02:20:55;;;;;;;11.32;10.25;;;;;;;-146.58;100.00;69501.63;5013516;28;20033;-68
2023/06/26 02:23:21;;;;;;;17.63;10.85;;;;;;;-146.58;100.00;69501.63;5012127;28;20033;-65
2023/06/26 02:25:46;;;;;;;13.90;9.68;;;;;;;-146.58;100.00;69501.63;5013622;28;20607;-65
2023/06/26 02:28:11;;;;;;;14.10;12.48;;;;;;;-146.58;100.00;69501.63;5012052;28;20029;-65
2023/06/26 02:30:37;;;;;;;12.90;11.52;;;;;;;-146.58;100.00;69501.63;5013609;28;20022;-65
2023/06/26 02:33:02;;;;;;;19.85;13.20;;;;;;;-146.58;100.00;69501.63;5011547;28;20029;-65
2023/06/26 02:35:28;;;;;;;14.13;12.82;;;;;;;-146.58;100.00;69501.63;5013469;28;20026;-65
2023/06/26 02:37:53;;;;;;;11.68;10.45;;;;;;;-146.58;100.00;69501.63;5013085;28;20362;-65
2023/06/26 02:40:18;;;;;;;14.25;11.18;;;;;;;-146.58;100.00;69501.63;5011398;28;20536;-65
2023/06/26 02:42:44;;;;;;;12.82;10.18;;;;;;;-146.58;100.00;69501.63;5013510;28;20026;-65
2023/06/26 02:45:09;;;;;;;12.30;11.10;;;;;;;-146.58;100.00;69501.63;5011656;28;20049;-66
2023/06/26 02:47:35;;;;;;;13.82;12.45;;;;;;;-146.58;100.00;69501.63;5013081;28;20030;-65
2023/06/26 02:50:00;;;;;;;13.00;11.05;;;;;;;-146.58;100.00;69501.63;5011764;28;20042;-65
2023/06/26 02:52:25;;;;;;;15.43;13.82;;;;;;;-146.58;100.00;69501.63;5013275;28;20026;-66
2023/06/26 02:54:51;;;;;;;15.57;11.63;;;;;;;-146.58;100.00;69501.63;5011291;28;20037;-66
2023/06/26 02:57:17;;;;;;;13.02;11.27;;;;;;;-146.58;100.00;69501.63;5028433;28;20084;-65
2023/06/26 02:59:42;;;;;;;12.85;11.55;;;;;;;-146.58;100.00;69501.63;5010925;28;20037;-66
2023/06/26 03:02:07;;;;;;;13.85;12.40;;;;;;;-146.58;100.00;69501.63;5012698;28;20029;-66
2023/06/26 03:04:36;;;;;;;13.80;12.13;;;;;;;-146.58;100.00;69501.63;5011559;28;20042;-66
2023/06/26 03:07:01;;;;;;;;;;;;;;;-146.58;100.00;69501.63;5013267;28;20026;-66
2023/06/26 03:09:26;;;;;;;14.95;13.43;;;;;;;-146.58;100.00;69501.63;5011371;28;19924;-66
2023/06/26 03:11:52;;;;;;;14.38;12.98;;;;;;;-146.58;100.00;69501.63;5012845;28;20489;-66
2023/06/26 03:14:18;;;;;;;14.13;12.68;;;;;;;-146.58;100.00;69501.63;5011050;28;20129;-66
2023/06/26 03:16:43;;;;;;;15.32;13.40;;;;;;;-146.58;100.00;69501.63;5011337;28;20018;-66
2023/06/26 03:19:09;;;;;;;14.05;12.63;;;;;;;-146.58;100.00;69501.63;5010054;28;20049;-65
2023/06/26 03:21:34;;;;;;;16.52;13.93;;;;;;;-146.58;100.00;69501.63;5012405;28;20021;-65
2023/06/26 03:23:59;;;;;;;15.18;12.23;;;;;;;-146.58;100.00;69501.63;5010633;28;20088;-65
2023/06/26 03:26:27;;;;;;;14.27;12.77;;;;;;;-146.58;100.00;69501.63;5012851;28;20034;-66
2023/06/26 03:28:53;;;;;;;22.25;12.25;;;;;;;-146.58;100.00;69501.63;5010601;28;20064;-65
2023/06/26 03:31:18;;;;;;;15.85;14.25;;;;;;;-146.58;100.00;69501.63;5012398;28;20424;-66
2023/06/26 03:33:44;;;;;;;18.15;13.90;;;;;;;-146.58;100.00;69501.63;5011008;28;20042;-66
2023/06/26 03:36:09;;;;;;;20.45;13.10;;;;;;;-146.58;100.00;69501.63;5012372;28;20041;-66
2023/06/26 03:38:34;;;;;;;17.70;14.07;;;;;;;-146.58;100.00;69501.63;5010517;28;20034;-66
2023/06/26 03:41:00;;;;;;;18.48;13.55;;;;;;;-146.58;100.00;69501.63;5012119;28;20022;-66
2023/06/26 03:43:25;;;;;;;15.07;11.93;;;;;;;-146.58;100.00;69501.63;5010667;28;20093;-67
2023/06/26 03:45:51;;;;;;;13.52;12.18;;;;;;;-146.58;100.00;69501.63;5011597;28;20025;-69
2023/06/26 03:48:16;;;;;;;16.10;14.27;;;;;;;-146.58;100.00;69501.63;5010355;28;20111;-69
2023/06/26 03:50:41;;;;;;;13.05;11.75;;;;;;;-146.58;100.00;69501.63;5011968;28;20025;-69
2023/06/26 03:53:06;;;;;;;15.50;14.00;;;;;;;-146.58;100.00;69501.63;5009447;28;20029;-67
2023/06/26 03:55:32;;;;;;;16.67;14.13;;;;;;;-146.58;100.00;69501.63;5011985;28;20022;-68
2023/06/26 03:57:57;;;;;;;17.80;13.43;;;;;;;-146.58;100.00;69501.63;5010169;28;20033;-68
2023/06/26 04:00:23;;;;;;;20.80;13.93;;;;;;;-146.58;100.00;69501.63;5011726;28;20381;-69
2023/06/26 04:02:48;;;;;;;18.42;13.25;;;;;;;-146.58;100.00;69501.63;5011633;28;20046;-69
2023/06/26 04:05:14;;;;;;;16.25;12.50;;;;;;;-146.58;100.00;69501.63;5010385;28;20042;-69
2023/06/26 04:07:39;;;;;;;14.60;12.40;;;;;;;-146.58;100.00;69501.63;5010695;28;20080;-70
2023/06/26 04:10:06;;;;;;;15.85;14.32;;;;;;;-146.58;100.00;69501.63;5009885;28;20053;-67
2023/06/26 04:12:31;;;;;;;17.98;13.80;;;;;;;-146.58;100.00;69501.63;5011359;28;20029;-66
2023/06/26 04:14:56;;;;;;;19.38;12.55;;;;;;;-146.58;100.00;69501.63;5004393;28;20488;-67
2023/06/26 04:17:22;;;;;;;13.05;10.85;;;;;;;-146.58;100.00;69501.63;4996487;28;20026;-66
2023/06/26 04:19:47;;;;;;;13.43;11.90;;;;;;;-146.58;100.00;69501.63;5004490;28;20034;-66
2023/06/26 04:22:12;;;;;;;14.57;12.60;;;;;;;-146.58;100.00;69501.63;5010958;28;20033;-66
2023/06/26 04:24:38;;;;;;;13.30;11.55;;;;;;;-146.58;100.00;69501.63;5009923;28;20034;-66
2023/06/26 04:27:03;;;;;;;12.10;10.90;;;;;;;-146.58;100.00;69501.63;5011525;28;20021;-66
2023/06/26 04:29:29;;;;;;;11.35;10.07;;;;;;;-146.58;100.00;69501.63;5008054;28;20053;-66
2023/06/26 04:31:58;;;;;;;12.38;10.70;;;;;;;-146.58;100.00;69501.63;5011340;28;20076;-66
2023/06/26 04:34:32;;;;;;;11.73;10.02;;;;;;;-146.58;100.00;69501.63;5010064;28;20065;-66
2023/06/26 04:36:57;;;;;;;16.08;11.90;;;;;;;-146.58;100.00;69501.63;5010824;28;20061;-66
2023/06/26 04:39:23;;;;;;;12.18;10.07;;;;;;;-146.58;100.00;69501.63;5009769;28;20033;-68
2023/06/26 04:41:48;;;;;;;12.75;8.27;;;;;;;-146.58;100.00;69501.63;5010754;28;20030;-69
2023/06/26 04:44:13;;;;;;;20.25;10.20;;;;;;;-146.58;100.00;69501.63;5009502;28;20042;-69
2023/06/26 04:46:42;;;;;;;13.65;8.93;;;;;;;-146.58;100.00;69501.63;5026385;28;20025;-69
2023/06/26 04:49:08;;;;;;;12.50;8.32;;;;;;;-146.58;100.00;69501.63;5009704;28;20540;-69
2023/06/26 04:51:33;;;;;;;9.45;8.48;;;;;;;-146.58;100.00;69501.63;5011015;28;20025;-71
2023/06/26 04:53:58;;;;;;;13.23;10.23;;;;;;;-146.58;100.00;69501.63;5009711;28;20463;-69
2023/06/26 04:56:24;;;;;;;7.88;6.68;;;;;;;-146.58;100.00;69501.63;5011271;28;20034;-69
2023/06/26 04:58:49;;;;;;;10.75;8.10;;;;;;;-146.58;100.00;69501.63;5009235;28;20053;-68
2023/06/26 05:01:15;;;;;;;13.02;6.95;;;;;;;-146.58;100.00;69501.63;5011019;28;20079;-69
2023/06/26 05:03:40;;;;;;;8.10;6.32;;;;;;;-146.58;100.00;69501.63;5009290;28;20185;-68
2023/06/26 05:06:06;;;;;;;15.73;7.50;;;;;;;-146.58;100.00;69501.63;5010933;28;20370;-68
2023/06/26 05:08:31;;;;;;;13.85;6.72;;;;;;;-146.58;100.00;69501.63;5009136;28;20044;-68
2023/06/26 05:10:58;;;;;;;8.15;6.80;;;;;;;-146.58;100.00;69501.63;5010198;28;20026;-68
2023/06/26 05:13:24;;;;;;;16.05;7.63;;;;;;;-146.58;100.00;69501.63;5009332;28;20044;-63
2023/06/26 05:15:49;;;;;;;12.30;5.32;;;;;;;-146.58;100.00;69501.63;5010382;28;20064;-65
2023/06/26 05:18:15;;;;;;;9.68;5.00;;;;;;;-146.58;100.00;69501.63;5009640;28;20069;-65
2023/06/26 05:20:41;;;;;;;13.05;5.82;;;;;;;-146.58;100.00;69501.63;5011015;28;20060;-64
2023/06/26 05:23:06;;;;;;;15.60;6.93;;;;;;;-146.58;100.00;69501.63;5008443;28;20032;-64
2023/06/26 05:25:33;;;;;;;13.52;6.88;;;;;;;-146.58;100.00;69501.63;5011078;28;20029;-65
2023/06/26 05:28:00;;;;;;;8.23;5.10;;;;;;;-146.58;100.00;69501.63;5008946;28;20059;-65
2023/06/26 05:30:26;;;;;;;10.85;6.47;;;;;;;-146.58;100.00;69501.63;5010506;28;20030;-64
2023/06/26 05:32:53;;;;;;;9.90;5.65;;;;;;;-146.58;100.00;69501.63;5009246;28;20022;-64
2023/06/26 05:35:20;;;;;;;11.43;5.75;;;;;;;-146.58;100.00;69501.63;5010875;28;20465;-64
2023/06/26 05:37:49;;;;;;;15.85;6.70;;;;;;;-146.58;100.00;69501.63;5010307;28;20411;-64
2023/06/26 05:40:17;;;;;;;10.73;5.95;;;;;;;-146.58;100.00;69501.63;5009381;28;20432;-64
2023/06/26 05:42:43;;;;;;;14.77;5.72;;;;;;;-146.58;100.00;69501.63;5010734;28;20165;-64
2023/06/26 05:45:09;;;;;;;11.02;7.43;;;;;;;-146.58;100.00;69501.63;5008571;28;20125;-64
2023/06/26 05:47:35;;;;;;;11.93;6.85;;;;;;;-146.58;100.00;69501.63;5010820;28;20109;-64
2023/06/26 05:50:01;;;;;;;10.77;5.55;;;;;;;-146.58;100.00;69501.63;5009123;28;20471;-64
2023/06/26 05:52:26;;;;;;;13.43;6.03;;;;;;;-146.58;100.00;69501.63;5010427;28;20113;-64
2023/06/26 05:54:52;;;;;;;21.13;7.22;;;;;;;-146.58;100.00;69501.63;5008966;28;20474;-64
2023/06/26 05:57:18;;;;;;;27.50;9.02;;;;;;;-146.58;100.00;69501.63;5010677;28;20030;-64
2023/06/26 05:59:44;;;;;;;9.30;5.72;;;;;;;-146.58;100.00;69501.63;5008716;28;20104;-64
2023/06/26 06:02:10;;;;;;;18.75;8.10;;;;;;;-146.58;100.00;69501.63;5010417;28;20026;-65
2023/06/26 06:04:37;;;;;;;16.48;7.40;;;;;;;-146.58;100.00;69501.63;5007870;28;20041;-65
2023/06/26 06:07:02;;;;;;;15.32;6.15;;;;;;;-146.58;100.00;69501.63;5008072;28;20053;-65
2023/06/26 06:09:27;;;;;;;13.60;6.40;;;;;;;-146.58;100.00;69501.63;5007106;28;20123;-70
2023/06/26 06:11:53;;;;;;;14.35;7.70;;;;;;;-146.58;100.00;69501.63;5008581;28;20523;-65
2023/06/26 06:14:18;;;;;;;17.42;6.93;;;;;;;-146.58;100.00;69501.63;5007350;28;20034;-65
2023/06/26 06:16:43;;;;;;;8.30;5.15;;;;;;;-146.58;100.00;69501.63;5012436;28;20018;-65
2023/06/26 06:19:12;;;;;;;15.45;6.30;;;;;;;-146.58;100.00;69501.63;5009862;28;20050;-65
2023/06/26 06:21:38;;;;;;;11.48;6.78;;;;;;;-146.58;100.00;69501.63;5012389;28;20488;-65
2023/06/26 06:24:03;;;;;;;13.85;7.35;;;;;;;-146.58;100.00;69501.63;5011811;28;20046;-66
2023/06/26 06:26:29;;;;;;;13.27;7.28;;;;;;;-146.58;100.00;69501.63;5013366;28;20525;-65
2023/06/26 06:28:54;;;;;;;16.98;7.40;;;;;;;-146.58;100.00;69501.63;5011622;28;20045;-65
2023/06/26 06:31:20;;;;;;;23.17;7.13;;;;;;;-146.58;100.00;69501.63;5013720;28;20026;-66
2023/06/26 06:33:45;;;;;;;15.48;7.35;;;;;;;-146.58;100.00;69501.63;5012224;28;20037;-66
2023/06/26 06:36:11;;;;;;;22.50;6.20;;;;;;;-146.58;100.00;69501.63;5011751;28;20420;-66
2023/06/26 06:38:36;;;;;;;13.43;6.55;;;;;;;-146.58;100.00;69501.63;5012071;28;20038;-66
2023/06/26 06:41:01;;;;;;;12.50;6.60;;;;;;;-146.58;100.00;69501.63;5013163;28;20029;-66
2023/06/26 06:43:27;;;;;;;13.10;6.20;;;;;;;-146.58;100.00;69501.63;5011670;28;20034;-66
2023/06/26 06:45:52;;;;;;;12.23;5.75;;;;;;;-146.58;100.00;69501.63;5012835;28;20393;-66
2023/06/26 06:48:17;;;;;;;10.70;6.18;;;;;;;-146.58;100.00;69501.63;5011819;28;20034;-66
2023/06/26 06:50:43;;;;;;;18.92;8.82;;;;;;;-146.58;100.00;69501.63;5013069;28;20584;-66
2023/06/26 06:53:08;;;;;;;13.68;6.18;;;;;;;-146.58;100.00;69501.63;5011701;28;20389;-66
2023/06/26 06:55:33;;;;;;;7.38;5.35;;;;;;;-146.58;100.00;69501.63;5012001;28;20025;-66
2023/06/26 06:57:59;;;;;;;10.10;5.63;;;;;;;-146.58;100.00;69501.63;5009688;28;20531;-66
2023/06/26 07:00:24;;;;;;;16.08;7.80;;;;;;;-146.58;100.00;69501.63;5032864;28;20017;-65
2023/06/26 07:02:50;;;;;;;13.05;6.85;;;;;;;-146.58;100.00;69501.63;5032329;28;20045;-65
2023/06/26 07:05:16;;;;;;;8.65;5.57;;;;;;;-146.58;100.00;69501.63;5031388;28;20037;-65
2023/06/26 07:07:41;;;;;;;15.48;6.82;;;;;;;-146.58;100.00;69501.63;5032840;28;20025;-65
2023/06/26 07:10:09;;;;;;;10.90;5.28;;;;;;;-146.58;100.00;69501.63;5031039;28;20088;-66
2023/06/26 07:12:35;;;;;;;8.38;5.88;;;;;;;-146.58;100.00;69501.63;5032472;28;20028;-65
2023/06/26 07:15:04;;;;;;;12.45;5.18;;;;;;;-146.58;100.00;69501.63;5030931;28;20129;-64
2023/06/26 07:17:30;;;;;;;12.75;6.25;;;;;;;-146.58;100.00;69501.63;5030607;28;20044;-65
2023/06/26 07:19:55;;;;;;;13.50;5.53;;;;;;;-146.58;100.00;69501.63;5030183;28;20056;-66
2023/06/26 07:22:20;;;;;;;19.15;6.22;;;;;;;-146.58;100.00;69501.63;5032607;28;20021;-66
2023/06/26 07:24:47;;;;;;;13.43;7.20;;;;;;;-146.58;100.00;69501.63;5030489;28;20087;-69
2023/06/26 07:27:16;;;;;;;11.27;5.32;;;;;;;-146.58;100.00;69501.63;5030535;28;20369;-65
2023/06/26 07:29:41;;;;;;;9.23;4.55;;;;;;;-146.58;100.00;69501.63;5030943;28;20690;-66
2023/06/26 07:32:07;;;;;;;9.73;4.25;;;;;;;-146.58;100.00;69501.63;5032324;28;20022;-65
2023/06/26 07:34:32;;;;;;;7.82;5.15;;;;;;;-146.58;100.00;69501.63;5030552;28;20442;-66
2023/06/26 07:36:58;;;;;;;11.68;4.13;;;;;;;-146.58;100.00;69501.63;5032115;28;20530;-66
2023/06/26 07:39:23;;;;;;;11.80;4.47;;;;;;;-146.58;100.00;69501.63;5030882;28;20034;-65
2023/06/26 07:41:48;;;;;;;14.07;4.45;;;;;;;-146.58;100.00;69501.63;5031436;28;20028;-66
2023/06/26 07:44:14;;;;;;;14.98;5.90;;;;;;;-146.58;100.00;69501.63;5030539;28;20038;-66
2023/06/26 07:46:39;;;;;;;9.63;5.32;;;;;;;-146.58;100.00;69501.63;5031961;28;20025;-65
2023/06/26 07:49:05;;;;;;;6.57;4.72;;;;;;;-146.58;100.00;69501.63;5029935;28;20041;-66
2023/06/26 07:51:30;;;;;;;15.93;5.13;;;;;;;-146.58;100.00;69501.63;5031970;28;20033;-66
2023/06/26 07:53:55;;;;;;;8.68;4.25;;;;;;;-146.58;100.00;69501.63;5030284;28;20029;-66
2023/06/26 07:56:21;;;;;;;9.60;3.55;;;;;;;-146.58;100.00;69501.63;5031513;28;20025;-65
2023/06/26 07:58:46;;;;;;;5.55;2.70;;;;;;;-146.58;100.00;69501.63;5029900;28;20500;-66
2023/06/26 08:01:11;;;;;;;5.95;3.33;;;;;;;-146.58;100.00;69501.63;5031715;28;20017;-66
2023/06/26 08:03:37;;;;;;;8.65;3.00;;;;;;;-146.58;100.00;69501.63;5030246;28;20045;-66
2023/06/26 08:06:03;;;;;;;7.35;2.60;;;;;;;-146.58;100.00;69501.63;5031169;28;20018;-65
2023/06/26 08:08:28;;;;;;;2.83;1.90;;;;;;;-146.58;100.00;69501.63;5028978;28;20441;-66
2023/06/26 08:10:54;;;;;;;5.35;2.38;;;;;;;-146.58;100.00;69501.63;5031325;28;20075;-66
2023/06/26 08:13:19;;;;;;;5.85;2.60;;;;;;;-146.58;100.00;69501.63;5029822;28;20512;-66
2023/06/26 08:15:44;;;;;;;2.60;1.90;;;;;;;-146.58;100.00;69501.63;5028859;28;20385;-65
2023/06/26 08:18:10;;;;;;;3.58;1.60;;;;;;;-146.58;100.00;69501.63;5028486;28;20037;-65
2023/06/26 08:20:36;;;;;;;7.45;2.33;;;;;;;-146.58;100.00;69501.63;5030771;28;20072;-65
2023/06/26 08:23:03;;;;;;;5.40;2.72;;;;;;;-146.58;100.00;69501.63;5029731;28;20419;-66
2023/06/26 08:25:29;;;;;;;5.93;2.75;;;;;;;-146.58;100.00;69501.63;5031427;28;20021;-65
2023/06/26 08:27:55;;;;;;;15.10;2.95;;;;;;;-146.58;100.00;69501.63;5029524;28;20394;-66
2023/06/26 08:30:21;;;;;;;6.15;2.15;;;;;;;-146.58;100.00;69501.63;5031260;28;20057;-65
2023/06/26 08:32:46;;;;;;;8.38;3.47;;;;;;;-146.58;100.00;69501.63;5030923;28;20061;-66
2023/06/26 08:35:12;;;;;;;5.78;3.53;;;;;;;-146.58;100.00;69501.63;5028253;28;20038;-65
2023/06/26 08:37:37;;;;;;;4.57;2.70;;;;;;;-146.58;100.00;69501.63;5031233;28;20028;-65
2023/06/26 08:40:03;;;;;;;7.15;2.38;;;;;;;-146.58;100.00;69501.63;5028775;28;20041;-66
2023/06/26 08:42:29;;;;;;;3.25;2.83;;;;;;;-146.58;100.00;69501.63;5030660;28;20053;-65
2023/06/26 08:44:54;;;;;;;7.13;3.20;;;;;;;-146.58;100.00;69501.63;5029186;28;20036;-65
2023/06/26 08:47:20;;;;;;;7.65;2.55;;;;;;;-146.58;100.00;69501.63;5031170;28;20421;-65
2023/06/26 08:49:56;;;;;;;2.97;2.50;;;;;;;-146.58;100.00;69501.63;5029270;28;20053;-65
2023/06/26 08:52:28;;;;;;;4.90;2.75;;;;;;;-146.58;100.00;69501.63;5031097;28;20021;-65
2023/06/26 08:54:58;;;;;;;3.22;2.45;;;;;;;-146.58;100.00;69501.63;5029224;28;20045;-65
2023/06/26 08:57:25;;;;;;;2.95;2.53;;;;;;;-146.58;100.00;69501.63;5029473;28;20025;-66
2023/06/26 08:59:52;;;;;;;5.13;3.45;;;;;;;-146.58;100.00;69501.63;5028207;28;20109;-65
2023/06/26 09:02:17;;;;;;;10.00;2.88;;;;;;;-146.58;100.00;69501.63;5029772;28;20022;-65
2023/06/26 09:04:42;;;;;;;5.10;2.33;;;;;;;-146.58;100.00;69501.63;5028884;28;20048;-66
2023/06/26 09:07:08;;;;;;;9.90;3.75;;;;;;;-146.58;100.00;69501.63;5030752;28;20022;-66
2023/06/26 09:09:33;;;;;;;6.90;2.63;;;;;;;-146.58;100.00;69501.63;5027923;28;20409;-66
2023/06/26 09:11:58;;;;;;;4.53;2.63;;;;;;;-146.58;100.00;69501.63;5030166;28;20034;-66
2023/06/26 09:14:24;;;;;;;4.50;2.78;;;;;;;-146.58;100.00;69501.63;5029302;28;20049;-66
2023/06/26 09:16:50;;;;;;;5.65;2.58;;;;;;;-146.58;100.00;69501.63;5030362;28;20108;-66
2023/06/26 09:19:16;;;;;;;6.53;3.10;;;;;;;-146.58;100.00;69501.63;5027589;28;20488;-66
2023/06/26 09:21:42;;;;;;;3.33;2.13;;;;;;;-146.58;100.00;69501.63;5027116;28;20033;-72
2023/06/26 09:24:08;;;;;;;5.07;2.80;;;;;;;-146.58;100.00;69501.63;5025396;28;20041;-67
2023/06/26 09:26:38;;;;;;;4.78;2.78;;;;;;;-146.58;100.00;69501.63;5029585;28;20029;-67
2023/06/26 09:29:05;;;;;;;6.68;2.45;;;;;;;-146.58;100.00;69501.63;5017495;28;20042;-66
2023/06/26 09:31:30;;;;;;;4.07;2.97;;;;;;;-146.58;100.00;69501.63;5009738;28;20366;-66
2023/06/26 09:33:59;;;;;;;5.68;3.60;;;;;;;-146.58;100.00;69501.63;5007501;28;20049;-66
2023/06/26 09:36:28;;;;;;;3.95;2.92;;;;;;;-146.58;100.00;69501.63;5010950;28;20559;-65
2023/06/26 09:38:53;;;;;;;;;;;;;;;-146.58;100.00;69501.63;5009186;28;20038;-65
2023/06/26 09:41:18;;;;;;;6.82;3.60;;;;;;;-146.58;100.00;69501.63;5010360;28;19910;-65
2023/06/26 09:43:51;;;;;;;8.82;3.17;;;;;;;-146.58;100.00;69501.63;5009322;28;20045;-66
2023/06/26 09:46:17;;;;;;;6.10;2.47;;;;;;;-146.58;100.00;69501.63;5010750;28;20448;-65
2023/06/26 09:48:43;;;;;;;8.93;3.67;;;;;;;-146.58;100.00;69501.63;5009027;28;20099;-65
2023/06/26 09:51:09;;;;;;;2.83;2.47;;;;;;;-146.58;100.00;69501.63;5010345;28;20014;-65
2023/06/26 09:53:36;;;;;;;5.05;2.50;;;;;;;-146.58;100.00;69501.63;5012728;28;20038;-66
2023/06/26 09:56:17;;;;;;;7.43;2.38;;;;;;;-146.58;100.00;69501.63;5013809;28;20022;-65
2023/06/26 09:58:43;;;;;;;8.43;3.17;;;;;;;-146.58;100.00;69501.63;5012955;28;20088;-65
2023/06/26 10:01:09;;;;;;;10.57;4.53;;;;;;;-146.58;100.00;69501.63;5014006;28;20026;-65
2023/06/26 10:03:34;;;;;;;4.13;2.50;;;;;;;-146.58;100.00;69501.63;5011971;28;20104;-66
2023/06/26 10:06:01;;;;;;;9.63;3.20;;;;;;;-146.58;100.00;69501.63;5013941;28;20117;-66
2023/06/26 10:08:27;;;;;;;5.53;3.58;;;;;;;-146.58;100.00;69501.63;5012362;28;20045;-66
2023/06/26 10:10:53;;;;;;;5.68;3.05;;;;;;;-146.58;100.00;69501.63;4999373;28;20087;-65
2023/06/26 10:13:24;;;;;;;6.95;2.90;;;;;;;-146.58;100.00;69501.63;5016276;28;20033;-65
2023/06/26 10:15:51;;;;;;;9.18;4.22;;;;;;;-146.58;100.00;69501.63;5033606;28;20025;-65
2023/06/26 10:18:18;;;;;;;6.47;2.80;;;;;;;-146.58;100.00;69501.63;5028501;28;20049;-65
2023/06/26 10:20:46;;;;;;;7.28;4.13;;;;;;;-146.58;100.00;69501.63;5013147;28;21157;-65
2023/06/26 10:23:13;;;;;;;8.93;3.28;;;;;;;-146.58;100.00;69501.63;5012246;28;20029;-65
2023/06/26 10:25:42;;;;;;;9.23;2.90;;;;;;;-146.58;100.00;69501.63;5013699;28;20507;-65
2023/06/26 10:28:09;;;;;;;3.90;2.38;;;;;;;-146.58;100.00;69501.63;5012006;28;20064;-66
2023/06/26 10:30:36;;;;;;;4.75;2.45;;;;;;;-146.58;100.00;69501.63;5013655;28;20034;-65
2023/06/26 10:33:03;;;;;;;8.57;4.00;;;;;;;-146.58;100.00;69501.63;5013300;28;20030;-66
2023/06/26 10:35:30;;;;;;;4.30;2.10;;;;;;;-146.58;100.00;69501.63;5003504;28;20046;-66
2023/06/26 10:38:04;;;;;;;5.40;2.07;;;;;;;-146.58;100.00;69501.63;4993348;28;20062;-66
2023/06/26 10:40:44;;;;;;;4.75;2.05;;;;;;;-146.58;100.00;69501.63;4992168;28;20038;-66
2023/06/26 10:43:12;;;;;;;6.68;2.47;;;;;;;-146.58;100.00;69501.63;4993805;28;20034;-66
2023/06/26 10:45:44;;;;;;;6.72;3.10;;;;;;;-146.58;100.00;69501.63;4992658;28;20049;-66
2023/06/26 10:48:12;;;;;;;3.97;2.53;;;;;;;-146.58;100.00;69501.63;4993582;28;20030;-66
2023/06/26 10:50:37;;;;;;;17.77;2.67;;;;;;;-146.58;100.00;69501.63;4992208;28;20062;-65
2023/06/26 10:53:13;;;;;;;3.08;1.65;;;;;;;-146.58;100.00;69501.63;4993613;28;20052;-66
2023/06/26 10:55:43;;;;;;;2.30;1.52;;;;;;;-146.58;100.00;69501.63;4992125;28;20165;-66
2023/06/26 10:58:31;;;;;;;4.95;2.28;;;;;;;-146.58;100.00;69501.63;4993542;28;20101;-65